Time;durP1;ratioP1;P1;durP2;ratioP2;P2;SDS_P1;SDS_P2;PMS_P1;PMS_P2;Temp;Humidity;BMP_temperature;BMP_pressure;BME280_temperature;BME280_humidity;BME280_pressure;Samples;Min_cycle;Max_cycle;Signal;HPM_P1;HPM_P2
2021/01/22 00:00:28;;;;;;;11.17;7.33;;;6.00;99.90;;;;;;5067222;28;20294;-83
2021/01/22 00:02:55;;;;;;;7.23;5.23;;;5.90;99.90;;;;;;5054427;28;20694;-83
2021/01/22 00:05:21;;;;;;;9.90;5.30;;;5.90;99.90;;;;;;5052570;28;20220;-83
2021/01/22 00:07:48;;;;;;;14.03;8.40;;;6.00;99.90;;;;;;5052561;28;20610;-83
2021/01/22 00:10:15;;;;;;;8.67;5.20;;;5.90;99.90;;;;;;5084092;28;20247;-83
2021/01/22 00:12:41;;;;;;;7.53;4.87;;;5.90;99.90;;;;;;5084826;28;20666;-83
2021/01/22 00:15:08;;;;;;;10.13;5.83;;;5.90;99.90;;;;;;5051691;28;20288;-84
2021/01/22 00:17:35;;;;;;;7.17;5.27;;;5.90;99.90;;;;;;5063759;28;20232;-84
2021/01/22 00:20:01;;;;;;;6.50;4.90;;;5.90;99.90;;;;;;5071517;28;20261;-83
2021/01/22 00:22:28;;;;;;;7.80;4.60;;;5.90;99.90;;;;;;5072562;28;20218;-83
2021/01/22 00:24:55;;;;;;;5.20;3.17;;;5.90;99.90;;;;;;5072178;28;20224;-83
2021/01/22 00:27:22;;;;;;;3.83;2.90;;;5.80;99.90;;;;;;5080794;28;20234;-84
2021/01/22 00:29:48;;;;;;;3.70;2.80;;;5.80;99.90;;;;;;5084426;28;20226;-83
2021/01/22 00:32:14;;;;;;;6.53;3.07;;;5.80;99.90;;;;;;5071716;28;20224;-83
2021/01/22 00:34:41;;;;;;;6.67;4.17;;;5.90;99.90;;;;;;5073536;28;20692;-83
2021/01/22 00:37:07;;;;;;;5.70;4.07;;;5.90;99.90;;;;;;5072012;28;20196;-83
2021/01/22 00:39:34;;;;;;;6.37;3.27;;;5.90;99.90;;;;;;5070787;28;20239;-84
2021/01/22 00:42:01;;;;;;;5.60;2.83;;;5.90;99.90;;;;;;5065642;28;20289;-84
2021/01/22 00:44:27;;;;;;;5.17;3.20;;;5.90;99.90;;;;;;5051412;28;20198;-84
2021/01/22 00:46:54;;;;;;;4.60;3.40;;;5.90;99.90;;;;;;5051866;28;20675;-83
2021/01/22 00:49:20;;;;;;;5.27;3.13;;;6.00;99.90;;;;;;5051409;28;20232;-83
2021/01/22 00:51:46;;;;;;;4.40;3.20;;;6.00;99.90;;;;;;5065189;28;20252;-84
2021/01/22 00:54:14;;;;;;;5.23;4.03;;;6.00;99.90;;;;;;5060814;28;20231;-83
2021/01/22 00:56:41;;;;;;;5.60;4.30;;;5.90;99.90;;;;;;5070913;28;20246;-83
2021/01/22 00:59:08;;;;;;;7.37;3.80;;;5.90;99.90;;;;;;5088248;28;20297;-83
2021/01/22 01:01:35;;;;;;;5.20;3.90;;;6.00;99.90;;;;;;5075323;28;20663;-83
2021/01/22 01:04:01;;;;;;;5.87;3.73;;;6.00;99.90;;;;;;5072452;28;20197;-83
2021/01/22 01:06:27;;;;;;;5.00;3.13;;;5.90;99.90;;;;;;5075552;28;20226;-83
2021/01/22 01:08:54;;;;;;;5.33;3.00;;;5.90;99.90;;;;;;5073967;28;20232;-83
2021/01/22 01:11:21;;;;;;;4.00;3.33;;;5.90;99.90;;;;;;5058387;28;20245;-84
2021/01/22 01:13:48;;;;;;;6.43;3.47;;;5.90;99.90;;;;;;5055339;28;20302;-83
2021/01/22 01:16:15;;;;;;;6.20;3.70;;;5.90;99.90;;;;;;5055289;28;20640;-83
2021/01/22 01:18:41;;;;;;;4.93;3.80;;;5.90;99.90;;;;;;5055072;28;20248;-83
2021/01/22 01:21:08;;;;;;;5.03;3.83;;;5.90;99.90;;;;;;5055301;28;20254;-84
2021/01/22 01:23:34;;;;;;;6.83;4.37;;;5.90;99.90;;;;;;5055372;28;20198;-84
2021/01/22 01:26:01;;;;;;;8.47;4.90;;;5.90;99.90;;;;;;5055332;28;20260;-84
2021/01/22 01:28:28;;;;;;;6.40;3.93;;;5.90;99.90;;;;;;5057155;28;20292;-83
2021/01/22 01:30:54;;;;;;;4.83;3.87;;;5.90;99.90;;;;;;5095276;28;20204;-83
2021/01/22 01:33:21;;;;;;;6.30;3.43;;;5.80;99.90;;;;;;5088631;28;20240;-84
2021/01/22 01:35:51;;;;;;;4.00;3.60;;;5.80;99.90;;;;;;5065670;28;20209;-83
2021/01/22 01:38:17;;;;;;;4.63;3.57;;;5.80;99.90;;;;;;5056393;28;20642;-84
2021/01/22 01:40:44;;;;;;;5.53;3.80;;;5.80;99.90;;;;;;5054929;28;20220;-84
2021/01/22 01:43:11;;;;;;;6.53;4.47;;;5.80;99.90;;;;;;5086726;28;20622;-84
2021/01/22 01:45:40;;;;;;;5.87;4.57;;;5.80;99.90;;;;;;5054580;28;20203;-83
2021/01/22 01:48:08;;;;;;;7.57;4.87;;;5.80;99.90;;;;;;5084489;28;20215;-83
2021/01/22 01:50:35;;;;;;;5.93;4.67;;;5.80;99.90;;;;;;5063999;28;20310;-83
2021/01/22 01:53:03;;;;;;;6.33;4.47;;;5.80;99.90;;;;;;5074969;28;20227;-83
2021/01/22 01:55:30;;;;;;;6.33;4.50;;;5.80;99.90;;;;;;5057444;28;20224;-83
2021/01/22 01:57:57;;;;;;;8.23;4.90;;;5.80;99.90;;;;;;5069076;28;20222;-83
2021/01/22 02:00:24;;;;;;;8.50;5.57;;;5.80;99.90;;;;;;5054961;28;20248;-84
2021/01/22 02:02:51;;;;;;;9.00;5.67;;;5.70;99.90;;;;;;5105860;28;20556;-84
2021/01/22 02:05:17;;;;;;;6.73;5.07;;;5.80;99.90;;;;;;5063301;28;20220;-83
2021/01/22 02:07:44;;;;;;;6.37;5.10;;;5.80;99.90;;;;;;5063111;28;20242;-83
2021/01/22 02:10:12;;;;;;;10.47;5.67;;;5.70;99.90;;;;;;5064633;28;20217;-83
2021/01/22 02:12:39;;;;;;;8.73;5.47;;;5.70;99.90;;;;;;5068424;28;20262;-83
2021/01/22 02:15:09;;;;;;;7.07;5.03;;;5.70;99.90;;;;;;5074238;28;20281;-83
2021/01/22 02:17:36;;;;;;;7.10;4.93;;;5.60;99.90;;;;;;5105451;28;20237;-84
2021/01/22 02:20:26;;;;;;;6.43;4.83;;;5.70;99.90;;;;;;5069615;28;20240;-83
2021/01/22 02:22:54;;;;;;;9.53;5.13;;;5.70;99.90;;;;;;5075580;28;20260;-84
2021/01/22 02:25:25;;;;;;;8.43;5.13;;;5.70;99.90;;;;;;5091974;28;20207;-83
2021/01/22 02:27:54;;;;;;;7.30;5.27;;;5.60;99.90;;;;;;5077474;28;20273;-84
2021/01/22 02:30:20;;;;;;;8.07;5.17;;;5.60;99.90;;;;;;5073474;28;20225;-84
2021/01/22 02:32:48;;;;;;;6.90;5.20;;;5.60;99.90;;;;;;5056304;28;20326;-84
2021/01/22 02:35:17;;;;;;;9.67;5.63;;;5.60;99.90;;;;;;5053923;28;20198;-84
2021/01/22 02:37:47;;;;;;;9.17;5.67;;;5.60;99.90;;;;;;5054066;28;20239;-83
2021/01/22 02:40:15;;;;;;;7.20;5.50;;;5.50;99.90;;;;;;5055839;28;20680;-83
2021/01/22 02:42:43;;;;;;;10.90;5.70;;;5.50;99.90;;;;;;5073967;28;20206;-84
2021/01/22 02:45:14;;;;;;;7.53;5.57;;;5.50;99.90;;;;;;5072945;28;20233;-84
2021/01/22 02:47:43;;;;;;;8.70;6.13;;;5.50;99.90;;;;;;5074166;28;20642;-84
2021/01/22 02:50:11;;;;;;;7.27;5.57;;;5.50;99.90;;;;;;5073719;28;20670;-83
2021/01/22 02:52:37;;;;;;;7.00;5.70;;;5.50;99.90;;;;;;5090486;28;20250;-83
2021/01/22 02:55:06;;;;;;;9.50;6.40;;;5.50;99.90;;;;;;5093387;28;20679;-83
2021/01/22 02:57:37;;;;;;;10.33;6.77;;;5.50;99.90;;;;;;5071904;28;20641;-84
2021/01/22 03:00:12;;;;;;;10.53;7.17;;;5.50;99.90;;;;;;5073670;28;20288;-83
2021/01/22 03:02:46;;;;;;;10.60;6.93;;;5.60;99.90;;;;;;5073225;28;20224;-83
2021/01/22 03:05:15;;;;;;;10.03;7.03;;;5.60;99.90;;;;;;5093461;28;20205;-84
2021/01/22 03:07:46;;;;;;;9.47;6.63;;;5.60;99.90;;;;;;5093876;28;20584;-84
2021/01/22 03:10:16;;;;;;;9.07;6.60;;;5.60;99.90;;;;;;5065709;28;20298;-83
2021/01/22 03:12:45;;;;;;;9.60;7.00;;;5.60;99.90;;;;;;5059803;28;20247;-84
2021/01/22 03:15:14;;;;;;;9.47;7.00;;;5.60;99.90;;;;;;5055809;28;20234;-83
2021/01/22 03:17:41;;;;;;;9.30;6.83;;;5.60;99.90;;;;;;5053844;28;20228;-84
2021/01/22 03:20:10;;;;;;;8.20;7.10;;;5.60;99.90;;;;;;5052263;28;20229;-83
2021/01/22 03:22:36;;;;;;;9.53;6.80;;;5.50;99.90;;;;;;5058317;28;20229;-84
2021/01/22 03:25:04;;;;;;;8.03;6.90;;;5.50;99.90;;;;;;5093217;28;20227;-84
2021/01/22 03:27:30;;;;;;;9.87;6.80;;;5.40;99.90;;;;;;5080991;28;20240;-83
2021/01/22 03:29:57;;;;;;;8.07;6.70;;;5.40;99.90;;;;;;5087955;28;20205;-84
2021/01/22 03:32:24;;;;;;;8.63;7.20;;;5.40;99.90;;;;;;5072554;28;20513;-83
2021/01/22 03:34:50;;;;;;;9.77;7.13;;;5.40;99.90;;;;;;5074696;28;20231;-84
2021/01/22 03:37:17;;;;;;;10.60;7.83;;;5.40;99.90;;;;;;5072384;28;20222;-83
2021/01/22 03:39:43;;;;;;;10.93;7.43;;;5.40;99.90;;;;;;5066602;28;20287;-84
2021/01/22 03:42:10;;;;;;;9.40;7.53;;;5.40;99.90;;;;;;5052842;28;20208;-83
2021/01/22 03:44:36;;;;;;;10.03;7.63;;;5.40;99.90;;;;;;5052316;28;20203;-84
2021/01/22 03:47:03;;;;;;;10.23;8.07;;;5.40;99.90;;;;;;5053239;28;20205;-84
2021/01/22 03:49:30;;;;;;;12.57;8.13;;;5.40;99.90;;;;;;5072029;28;20202;-84
2021/01/22 03:51:57;;;;;;;11.60;8.10;;;5.40;99.90;;;;;;5071829;28;20301;-83
2021/01/22 03:54:23;;;;;;;10.93;8.00;;;5.30;99.90;;;;;;5072865;28;20238;-83
2021/01/22 03:56:50;;;;;;;9.87;7.13;;;5.30;99.90;;;;;;5068356;28;20298;-83
2021/01/22 03:59:16;;;;;;;9.10;7.53;;;5.20;99.90;;;;;;5052102;28;20306;-83
2021/01/22 04:01:43;;;;;;;10.17;7.57;;;5.30;99.90;;;;;;5054547;28;20707;-84
2021/01/22 04:04:09;;;;;;;10.97;7.67;;;5.20;99.90;;;;;;5065092;28;20257;-84
2021/01/22 04:06:37;;;;;;;10.13;7.50;;;5.10;99.90;;;;;;5070763;28;20223;-84
2021/01/22 04:09:04;;;;;;;8.17;7.23;;;5.00;99.90;;;;;;5072260;28;20231;-84
2021/01/22 04:11:30;;;;;;;9.00;7.37;;;5.00;99.90;;;;;;5071609;28;20227;-84
2021/01/22 04:13:57;;;;;;;9.77;7.63;;;5.00;99.90;;;;;;5072393;28;20330;-84
2021/01/22 04:16:23;;;;;;;11.93;8.37;;;5.00;99.90;;;;;;5061851;28;20749;-83
2021/01/22 04:18:50;;;;;;;13.30;8.87;;;5.10;99.90;;;;;;5075155;28;20678;-84
2021/01/22 04:21:16;;;;;;;19.40;12.63;;;5.10;99.90;;;;;;5056209;28;20639;-84
2021/01/22 04:23:44;;;;;;;18.37;12.70;;;5.20;99.90;;;;;;5062452;28;20252;-84
2021/01/22 04:26:10;;;;;;;17.93;13.47;;;5.30;99.90;;;;;;5092384;28;20690;-83
2021/01/22 04:28:37;;;;;;;16.43;13.33;;;5.20;99.90;;;;;;5092320;28;20222;-83
2021/01/22 04:31:03;;;;;;;22.10;15.10;;;5.30;99.90;;;;;;5092893;28;20780;-83
2021/01/22 04:33:29;;;;;;;23.30;15.80;;;5.30;99.90;;;;;;5093533;28;20265;-83
2021/01/22 04:35:56;;;;;;;22.20;15.80;;;5.30;99.90;;;;;;5074944;28;20226;-83
2021/01/22 04:38:22;;;;;;;22.13;15.60;;;5.30;99.90;;;;;;5056470;28;20280;-83
2021/01/22 04:40:51;;;;;;;17.03;12.97;;;5.30;99.90;;;;;;5075975;28;20560;-83
2021/01/22 04:43:18;;;;;;;16.87;11.97;;;5.30;99.90;;;;;;5068985;28;20234;-83
2021/01/22 04:45:44;;;;;;;13.77;10.83;;;5.30;99.90;;;;;;5076072;28;20246;-83
2021/01/22 04:48:11;;;;;;;13.70;9.80;;;5.30;99.90;;;;;;5076347;28;20254;-83
2021/01/22 04:50:40;;;;;;;11.67;9.70;;;5.20;99.90;;;;;;5075189;28;20231;-84
2021/01/22 04:53:10;;;;;;;11.80;9.37;;;5.20;99.90;;;;;;5075948;28;20224;-83
2021/01/22 04:55:40;;;;;;;10.50;8.40;;;5.10;99.90;;;;;;5075290;28;20199;-83
2021/01/22 04:58:10;;;;;;;11.93;8.53;;;5.20;99.90;;;;;;5074950;28;20279;-84
2021/01/22 05:00:38;;;;;;;10.67;7.63;;;5.20;99.90;;;;;;5061470;28;20227;-83
2021/01/22 05:03:05;;;;;;;11.03;8.07;;;5.20;99.90;;;;;;5067867;28;20274;-83
2021/01/22 05:05:32;;;;;;;9.23;8.20;;;5.10;99.90;;;;;;5060238;28;20233;-84
2021/01/22 05:07:58;;;;;;;9.50;7.73;;;5.10;99.90;;;;;;5066135;28;20653;-84
2021/01/22 05:10:25;;;;;;;11.83;8.60;;;5.00;99.90;;;;;;5075238;28;20261;-84
2021/01/22 05:12:51;;;;;;;11.33;8.47;;;4.90;99.90;;;;;;5070808;28;20226;-83
2021/01/22 05:15:21;;;;;;;10.37;7.63;;;4.80;99.90;;;;;;5070526;28;20249;-83
2021/01/22 05:17:58;;;;;;;13.23;9.27;;;4.70;99.90;;;;;;5055434;28;20234;-83
2021/01/22 05:20:29;;;;;;;10.93;8.10;;;4.60;99.90;;;;;;5057169;28;20250;-83
2021/01/22 05:22:57;;;;;;;10.53;7.70;;;4.50;99.90;;;;;;5055177;28;20195;-83
2021/01/22 05:25:23;;;;;;;10.67;8.33;;;4.20;99.90;;;;;;5055340;28;20231;-84
2021/01/22 05:27:51;;;;;;;11.90;8.70;;;4.10;99.90;;;;;;5055315;28;20291;-83
2021/01/22 05:30:20;;;;;;;11.17;8.80;;;4.10;99.90;;;;;;5064958;28;20760;-84
2021/01/22 05:32:46;;;;;;;11.57;8.13;;;4.20;99.90;;;;;;5075191;28;20219;-84
2021/01/22 05:35:26;;;;;;;11.20;8.17;;;4.20;99.90;;;;;;5074889;28;20288;-83
2021/01/22 05:37:53;;;;;;;15.73;11.47;;;4.20;99.90;;;;;;5075153;28;20207;-83
2021/01/22 05:40:20;;;;;;;19.00;12.60;;;4.20;99.90;;;;;;5070972;28;20237;-83
2021/01/22 05:42:48;;;;;;;17.37;12.20;;;4.30;99.90;;;;;;5057290;28;20237;-85
2021/01/22 05:45:16;;;;;;;21.13;13.47;;;4.30;99.90;;;;;;5074959;28;20663;-84
2021/01/22 05:47:43;;;;;;;24.17;15.90;;;4.40;99.90;;;;;;5074233;28;20286;-83
2021/01/22 05:50:10;;;;;;;22.40;15.90;;;4.50;99.90;;;;;;5074546;28;20249;-83
2021/01/22 05:52:37;;;;;;;24.73;16.03;;;4.50;99.90;;;;;;5082522;28;20219;-83
2021/01/22 05:55:22;;;;;;;24.03;16.60;;;4.50;99.90;;;;;;5074345;28;20256;-83
2021/01/22 05:57:48;;;;;;;22.93;16.63;;;4.50;99.90;;;;;;5065467;28;20196;-83
2021/01/22 06:00:16;;;;;;;20.67;14.60;;;4.60;99.90;;;;;;5084119;28;20290;-83
2021/01/22 06:02:43;;;;;;;18.53;13.33;;;4.50;99.90;;;;;;5088853;28;20603;-83
2021/01/22 06:05:15;;;;;;;18.03;13.30;;;4.60;99.90;;;;;;5094515;28;20218;-81
2021/01/22 06:07:43;;;;;;;17.57;12.90;;;4.60;99.90;;;;;;5084208;28;20234;-81
2021/01/22 06:10:17;;;;;;;19.27;14.00;;;4.70;99.90;;;;;;5066459;28;20281;-80
2021/01/22 06:12:48;;;;;;;20.50;13.57;;;4.70;99.90;;;;;;5072572;28;20755;-81
2021/01/22 06:15:16;;;;;;;17.60;12.80;;;4.70;99.90;;;;;;5094458;28;20206;-81
2021/01/22 06:17:50;;;;;;;20.23;13.77;;;4.70;99.90;;;;;;5094453;28;20202;-80
2021/01/22 06:20:19;;;;;;;18.17;12.80;;;4.70;99.90;;;;;;5067540;28;20697;-80
2021/01/22 06:23:04;;;;;;;17.90;13.53;;;4.60;99.90;;;;;;5071160;28;20671;-81
2021/01/22 06:25:32;;;;;;;19.80;14.20;;;4.60;99.90;;;;;;5073910;28;20626;-81
2021/01/22 06:28:02;;;;;;;20.77;13.33;;;4.60;99.90;;;;;;5092050;28;20324;-82
2021/01/22 06:30:29;;;;;;;19.30;14.17;;;4.60;99.90;;;;;;5073776;28;20680;-81
2021/01/22 06:32:59;;;;;;;22.77;14.87;;;4.60;99.90;;;;;;5063609;28;20263;-80
2021/01/22 06:35:28;;;;;;;24.53;16.77;;;4.60;99.90;;;;;;5061666;28;20204;-80
2021/01/22 06:37:56;;;;;;;27.10;16.43;;;4.60;99.90;;;;;;5073104;28;20206;-80
2021/01/22 06:40:23;;;;;;;20.10;15.03;;;4.60;99.90;;;;;;5073663;28;20227;-80
2021/01/22 06:42:50;;;;;;;19.33;14.00;;;4.60;99.90;;;;;;5062668;28;20685;-79
2021/01/22 06:45:19;;;;;;;16.83;13.00;;;4.60;99.90;;;;;;5053669;28;20238;-80
2021/01/22 06:48:05;;;;;;;16.70;12.60;;;4.50;99.90;;;;;;5092058;28;20207;-79
2021/01/22 06:50:32;;;;;;;17.53;11.50;;;4.40;99.90;;;;;;5066484;28;20226;-79
2021/01/22 06:53:10;;;;;;;14.17;11.27;;;4.40;99.90;;;;;;5067339;28;20287;-79
2021/01/22 06:56:08;;;;;;;15.93;10.83;;;4.40;99.90;;;;;;5072350;28;20241;-79
2021/01/22 06:58:34;;;;;;;19.63;12.93;;;4.40;99.90;;;;;;5047955;28;20215;-80
2021/01/22 07:01:02;;;;;;;16.80;13.07;;;4.40;99.90;;;;;;5060714;28;20227;-80
2021/01/22 07:03:49;;;;;;;16.87;11.97;;;4.40;99.90;;;;;;5058640;28;20227;-80
2021/01/22 07:06:48;;;;;;;15.13;12.10;;;4.30;99.90;;;;;;5062588;28;20285;-79
2021/01/22 07:09:15;;;;;;;17.80;11.53;;;4.20;99.90;;;;;;5075533;28;20212;-79
2021/01/22 07:11:58;;;;;;;15.80;11.40;;;4.10;99.90;;;;;;5072035;28;20199;-79
2021/01/22 07:14:35;;;;;;;16.37;12.43;;;4.00;99.90;;;;;;5060044;28;20367;-79
2021/01/22 07:17:14;;;;;;;19.27;12.50;;;4.00;99.90;;;;;;5061310;28;20203;-79
2021/01/22 07:19:50;;;;;;;15.80;12.53;;;3.90;99.90;;;;;;5061595;28;20767;-79
2021/01/22 07:22:16;;;;;;;13.80;11.03;;;3.80;99.90;;;;;;5058002;28;20275;-79
2021/01/22 07:24:46;;;;;;;16.03;10.93;;;3.80;99.90;;;;;;5052669;28;20245;-80
2021/01/22 07:27:14;;;;;;;13.60;10.33;;;3.60;99.90;;;;;;5058278;28;20201;-79
2021/01/22 07:29:41;;;;;;;13.50;10.50;;;3.50;99.90;;;;;;5071194;28;20233;-79
2021/01/22 07:32:09;;;;;;;16.67;11.23;;;3.40;99.90;;;;;;5060987;28;20252;-79
2021/01/22 07:34:54;;;;;;;14.23;11.03;;;3.40;99.90;;;;;;5060524;28;20586;-83
2021/01/22 07:37:22;;;;;;;15.30;10.10;;;3.30;99.90;;;;;;5067605;28;20693;-83
2021/01/22 07:39:50;;;;;;;12.83;10.33;;;3.30;99.90;;;;;;5071496;28;20287;-83
2021/01/22 07:42:18;;;;;;;13.40;9.87;;;3.30;99.90;;;;;;5056625;28;20633;-83
2021/01/22 07:44:47;;;;;;;16.90;10.50;;;3.20;99.90;;;;;;5057953;28;20238;-83
2021/01/22 07:47:25;;;;;;;15.43;10.63;;;3.20;99.90;;;;;;5064609;28;20218;-83
2021/01/22 07:49:53;;;;;;;14.73;10.53;;;3.20;99.90;;;;;;5068102;28;20202;-83
2021/01/22 07:52:20;;;;;;;13.80;10.37;;;3.20;99.90;;;;;;5072042;28;20240;-83
2021/01/22 07:54:47;;;;;;;14.40;10.30;;;3.20;99.90;;;;;;5065576;28;20313;-83
2021/01/22 07:57:18;;;;;;;17.53;10.80;;;3.20;99.90;;;;;;5070801;28;20198;-83
2021/01/22 07:59:46;;;;;;;14.63;10.77;;;3.10;99.90;;;;;;5071323;28;20206;-83
2021/01/22 08:02:18;;;;;;;16.53;10.53;;;3.10;99.90;;;;;;5071338;28;20225;-83
2021/01/22 08:04:46;;;;;;;17.00;11.57;;;3.10;99.90;;;;;;5073655;28;20572;-83
2021/01/22 08:07:13;;;;;;;18.77;12.50;;;3.00;99.90;;;;;;5066140;28;20330;-83
2021/01/22 08:09:57;;;;;;;20.67;12.47;;;3.00;99.90;;;;;;5063453;28;20229;-83
2021/01/22 08:12:24;;;;;;;24.03;16.27;;;2.90;99.90;;;;;;5066506;28;20196;-82
2021/01/22 08:14:51;;;;;;;23.73;16.20;;;3.00;99.90;;;;;;5065858;28;20202;-83
2021/01/22 08:17:18;;;;;;;26.27;17.10;;;3.00;99.90;;;;;;5064837;28;20894;-83
2021/01/22 08:19:45;;;;;;;29.47;19.77;;;3.10;99.90;;;;;;5063090;28;20238;-83
2021/01/22 08:22:15;;;;;;;28.80;20.07;;;3.00;99.90;;;;;;5067739;28;20224;-82
2021/01/22 08:24:49;;;;;;;30.93;20.30;;;3.10;99.90;;;;;;5062236;28;20294;-82
2021/01/22 08:27:19;;;;;;;35.40;21.10;;;3.20;99.90;;;;;;5066130;28;20249;-79
2021/01/22 08:29:47;;;;;;;23.03;16.87;;;3.60;99.90;;;;;;5057091;28;20199;-80
2021/01/22 08:32:16;;;;;;;27.93;17.37;;;3.60;99.90;;;;;;5065622;28;20705;-79
2021/01/22 08:34:43;;;;;;;28.03;20.10;;;3.90;99.90;;;;;;5067012;28;20227;-80
2021/01/22 08:37:15;;;;;;;25.77;18.97;;;4.90;99.90;;;;;;5068945;28;20293;-80
2021/01/22 08:39:51;;;;;;;103.00;20.80;;;5.70;99.90;;;;;;5058663;28;20231;-80
2021/01/22 08:42:18;;;;;;;12.63;8.63;;;6.10;99.90;;;;;;5062825;28;20198;-80
2021/01/22 08:44:56;;;;;;;11.13;7.20;;;5.70;99.90;;;;;;5065287;28;20226;-80
2021/01/22 08:47:23;;;;;;;10.73;8.17;;;6.10;99.90;;;;;;5061616;28;20241;-80
2021/01/22 08:49:57;;;;;;;8.90;7.77;;;6.80;99.90;;;;;;5065046;28;20229;-80
2021/01/22 08:52:26;;;;;;;8.10;7.30;;;7.60;99.90;;;;;;5060311;28;20234;-80
2021/01/22 08:54:53;;;;;;;14.40;7.63;;;8.50;99.90;;;;;;5067560;28;20195;-80
2021/01/22 08:57:20;;;;;;;10.80;7.70;;;9.30;99.90;;;;;;5065567;28;20200;-80
2021/01/22 08:59:49;;;;;;;10.93;8.50;;;9.90;99.90;;;;;;5064289;28;20286;-81
2021/01/22 09:02:15;;;;;;;11.30;8.30;;;10.50;99.90;;;;;;5069011;28;20776;-80
2021/01/22 09:04:42;;;;;;;10.60;8.37;;;11.00;99.90;;;;;;5060849;28;20228;-81
2021/01/22 09:07:17;;;;;;;9.27;6.90;;;11.70;99.90;;;;;;5057919;28;20223;-81
2021/01/22 09:09:47;;;;;;;7.73;5.93;;;12.10;99.90;;;;;;5064972;28;20195;-81
2021/01/22 09:12:20;;;;;;;6.25;5.25;;;13.00;99.90;;;;;;5068165;28;20237;-81
2021/01/22 09:14:51;;;;;;;8.65;5.40;;;13.90;99.90;;;;;;5071275;28;20284;-81
2021/01/22 09:17:28;;;;;;;7.38;5.80;;;13.50;99.90;;;;;;5066209;28;20567;-81
2021/01/22 09:19:58;;;;;;;11.25;7.43;;;14.20;99.90;;;;;;5066934;28;20253;-80
2021/01/22 09:22:26;;;;;;;8.73;6.00;;;12.10;99.90;;;;;;5068794;28;20291;-80
2021/01/22 09:24:55;;;;;;;8.23;6.37;;;10.90;99.90;;;;;;5061569;28;20286;-80
2021/01/22 09:27:21;;;;;;;8.20;6.93;;;10.70;99.90;;;;;;5064269;28;20226;-80
2021/01/22 09:29:48;;;;;;;7.93;5.53;;;11.00;99.90;;;;;;5073601;28;20206;-81
2021/01/22 09:32:15;;;;;;;6.63;4.63;;;11.50;99.90;;;;;;5073103;28;20238;-80
2021/01/22 09:34:43;;;;;;;7.17;4.17;;;12.10;99.90;;;;;;5063305;28;20211;-80
2021/01/22 09:37:10;;;;;;;5.50;3.38;;;12.40;99.90;;;;;;5067704;28;20229;-81
2021/01/22 09:39:36;;;;;;;4.55;3.33;;;12.70;99.90;;;;;;5074155;28;20199;-80
2021/01/22 09:42:05;;;;;;;7.35;3.17;;;12.70;99.90;;;;;;5070640;28;20230;-81
2021/01/22 09:44:31;;;;;;;5.90;3.45;;;12.80;99.90;;;;;;5070118;28;20222;-81
2021/01/22 09:46:58;;;;;;;5.78;2.97;;;13.10;99.90;;;;;;5072191;28;20890;-80
2021/01/22 09:49:24;;;;;;;7.45;3.83;;;13.30;99.90;;;;;;5070722;28;20635;-81
2021/01/22 09:51:51;;;;;;;4.40;2.83;;;13.50;99.90;;;;;;5058652;28;20199;-81
2021/01/22 09:54:17;;;;;;;4.93;3.30;;;13.40;99.90;;;;;;5071808;28;20222;-81
2021/01/22 09:56:44;;;;;;;6.45;2.72;;;13.20;99.90;;;;;;5070960;28;20230;-80
2021/01/22 09:59:11;;;;;;;5.97;2.92;;;13.50;99.90;;;;;;5063191;28;20235;-79
2021/01/22 10:01:38;;;;;;;3.70;2.87;;;13.80;99.90;;;;;;5065562;28;20223;-79
2021/01/22 10:04:05;;;;;;;6.82;5.15;;;14.10;99.90;;;;;;5068465;28;20230;-79
2021/01/22 10:06:32;;;;;;;7.18;3.88;;;14.40;99.90;;;;;;5066354;28;20255;-79
2021/01/22 10:08:59;;;;;;;7.82;3.58;;;14.50;99.90;;;;;;5071922;28;20203;-79
2021/01/22 10:11:25;;;;;;;6.37;3.67;;;15.20;99.90;;;;;;5072264;28;20299;-79
2021/01/22 10:13:55;;;;;;;4.65;2.88;;;15.30;99.90;;;;;;5069617;28;20309;-79
2021/01/22 10:16:24;;;;;;;4.90;3.22;;;15.20;99.90;;;;;;5063746;28;20199;-79
2021/01/22 10:18:56;;;;;;;5.90;3.58;;;14.90;99.90;;;;;;5072900;28;20277;-78
2021/01/22 10:21:23;;;;;;;7.07;3.17;;;14.90;99.90;;;;;;5098609;28;20196;-79
2021/01/22 10:23:52;;;;;;;3.80;2.70;;;15.20;99.90;;;;;;5069868;28;20222;-79
2021/01/22 10:26:21;;;;;;;4.97;3.20;;;15.90;99.90;;;;;;5079346;28;20229;-81
2021/01/22 10:28:49;;;;;;;6.57;3.22;;;16.10;99.90;;;;;;5069473;28;20231;-81
2021/01/22 10:31:15;;;;;;;5.15;3.22;;;16.60;99.90;;;;;;5063158;28;20203;-80
2021/01/22 10:33:43;;;;;;;6.22;3.05;;;16.50;99.90;;;;;;5063615;28;20663;-80
2021/01/22 10:36:09;;;;;;;5.07;2.90;;;16.70;99.90;;;;;;5072053;28;20642;-81
2021/01/22 10:38:36;;;;;;;5.93;3.60;;;16.20;99.90;;;;;;5073191;28;20235;-82
2021/01/22 10:41:03;;;;;;;6.53;4.25;;;16.20;99.90;;;;;;5071281;28;20195;-81
2021/01/22 10:43:30;;;;;;;5.80;4.40;;;16.00;99.90;;;;;;5072088;28;20306;-80
2021/01/22 10:45:57;;;;;;;6.55;4.38;;;15.90;99.90;;;;;;5072989;28;20246;-81
2021/01/22 10:48:24;;;;;;;6.03;4.32;;;16.00;99.90;;;;;;5071874;28;20294;-80
2021/01/22 10:50:52;;;;;;;6.10;1.88;;;16.50;99.90;;;;;;5068869;28;20230;-81
2021/01/22 10:53:18;;;;;;;6.75;1.73;;;15.80;99.90;;;;;;5068192;28;20233;-81
2021/01/22 10:55:45;;;;;;;6.55;2.03;;;15.80;99.90;;;;;;5068022;28;20644;-80
2021/01/22 10:58:12;;;;;;;6.85;2.28;;;15.40;99.90;;;;;;5066327;28;20239;-81
2021/01/22 11:00:39;;;;;;;6.47;1.90;;;15.00;99.90;;;;;;5068756;28;20648;-80
2021/01/22 11:03:05;;;;;;;5.47;2.10;;;15.10;99.90;;;;;;5062302;28;20311;-81
2021/01/22 11:05:32;;;;;;;5.28;1.70;;;15.30;99.90;;;;;;5066091;28;20231;-81
2021/01/22 11:07:59;;;;;;;5.35;3.22;;;15.80;99.90;;;;;;5062366;28;20581;-81
2021/01/22 11:10:26;;;;;;;4.22;1.63;;;15.80;99.90;;;;;;5068768;28;20243;-80
2021/01/22 11:12:53;;;;;;;6.20;2.38;;;15.10;99.90;;;;;;5072283;28;20222;-80
2021/01/22 11:15:20;;;;;;;6.72;2.38;;;14.70;99.90;;;;;;5064924;28;20238;-80
2021/01/22 11:17:46;;;;;;;5.30;2.30;;;14.60;99.90;;;;;;5068373;28;20659;-80
2021/01/22 11:20:14;;;;;;;3.97;2.30;;;14.20;99.90;;;;;;5070592;28;20314;-78
2021/01/22 11:22:40;;;;;;;5.53;2.60;;;13.80;99.90;;;;;;5067234;28;20613;-78
2021/01/22 11:25:09;;;;;;;4.63;2.20;;;13.50;99.90;;;;;;5070232;28;20282;-78
2021/01/22 11:27:35;;;;;;;3.80;1.83;;;13.80;99.90;;;;;;5062972;28;20298;-78
2021/01/22 11:30:06;;;;;;;6.80;2.30;;;13.90;99.90;;;;;;5073274;28;20191;-78
2021/01/22 11:32:32;;;;;;;7.03;2.70;;;14.20;99.90;;;;;;5071883;28;20295;-78
2021/01/22 11:34:59;;;;;;;5.57;2.80;;;14.70;99.90;;;;;;5064719;28;20701;-79
2021/01/22 11:37:25;;;;;;;6.63;2.20;;;15.30;99.90;;;;;;5072538;28;20234;-78
2021/01/22 11:39:51;;;;;;;7.17;3.10;;;15.30;99.90;;;;;;5070251;28;20261;-80
2021/01/22 11:42:19;;;;;;;7.47;3.00;;;15.60;99.90;;;;;;5070176;28;20253;-79
2021/01/22 11:44:46;;;;;;;8.02;2.45;;;15.60;99.90;;;;;;5069538;28;20312;-78
2021/01/22 11:47:12;;;;;;;6.57;1.80;;;15.60;99.90;;;;;;5068612;28;20207;-79
2021/01/22 11:49:39;;;;;;;4.43;2.03;;;15.50;99.90;;;;;;5071222;28;20214;-79
2021/01/22 11:52:05;;;;;;;7.10;2.45;;;15.30;99.90;;;;;;5060863;28;20204;-79
2021/01/22 11:54:33;;;;;;;6.07;1.45;;;15.70;99.90;;;;;;5072366;28;20226;-79
2021/01/22 11:57:00;;;;;;;4.93;1.73;;;15.10;99.90;;;;;;5074730;28;20666;-79
2021/01/22 11:59:27;;;;;;;7.83;1.50;;;14.60;99.90;;;;;;5072879;28;20194;-79
2021/01/22 12:01:53;;;;;;;3.23;1.50;;;14.10;99.90;;;;;;5066903;28;20223;-78
2021/01/22 12:04:20;;;;;;;2.63;1.37;;;14.30;99.90;;;;;;5052226;28;20310;-78
2021/01/22 12:06:46;;;;;;;4.60;1.67;;;14.40;99.90;;;;;;5054595;28;20286;-79
2021/01/22 12:09:13;;;;;;;4.80;1.70;;;14.90;99.90;;;;;;5059242;28;20289;-81
2021/01/22 12:11:39;;;;;;;3.70;1.20;;;15.00;99.90;;;;;;5082303;28;20230;-80
2021/01/22 12:14:06;;;;;;;3.77;1.10;;;14.90;99.90;;;;;;5061799;28;20238;-79
2021/01/22 12:16:33;;;;;;;2.73;1.20;;;14.80;99.90;;;;;;5051908;28;20707;-80
2021/01/22 12:19:00;;;;;;;3.90;1.30;;;14.20;99.90;;;;;;5051633;28;20267;-79
2021/01/22 12:21:26;;;;;;;3.50;1.43;;;14.30;99.90;;;;;;5052348;28;20231;-80
2021/01/22 12:23:53;;;;;;;3.93;1.40;;;14.30;99.90;;;;;;5051803;28;20310;-79
2021/01/22 12:26:19;;;;;;;3.13;1.37;;;14.20;99.90;;;;;;5052266;28;20231;-79
2021/01/22 12:28:47;;;;;;;3.50;1.40;;;13.90;99.90;;;;;;5052406;28;20242;-79
2021/01/22 12:31:13;;;;;;;7.23;1.47;;;13.30;99.90;;;;;;5052029;28;20200;-79
2021/01/22 12:33:40;;;;;;;4.33;1.50;;;13.20;99.90;;;;;;5051694;28;20242;-80
2021/01/22 12:36:07;;;;;;;3.77;1.27;;;13.10;99.90;;;;;;5051703;28;20234;-80
2021/01/22 12:38:34;;;;;;;3.30;1.13;;;12.90;99.90;;;;;;5052318;28;20238;-79
2021/01/22 12:41:01;;;;;;;3.17;1.20;;;13.00;99.90;;;;;;5051542;28;20555;-80
2021/01/22 12:43:27;;;;;;;3.23;1.00;;;13.00;99.90;;;;;;5052211;28;20292;-80
2021/01/22 12:45:54;;;;;;;5.10;1.10;;;13.00;99.90;;;;;;5051860;28;20235;-80
2021/01/22 12:48:20;;;;;;;4.17;1.30;;;13.00;99.90;;;;;;5063120;28;20250;-80
2021/01/22 12:50:48;;;;;;;3.70;1.40;;;13.30;99.90;;;;;;5071890;28;20242;-80
2021/01/22 12:53:14;;;;;;;4.13;1.93;;;13.40;99.90;;;;;;5074021;28;20195;-80